createdAt,value
2018-09-10T00:00:49.038Z,99971.45
2018-09-10T00:03:18.548Z,99975.83
2018-09-10T00:05:48.036Z,99968.75
2018-09-10T00:08:17.588Z,99971.75
2018-09-10T00:10:47.068Z,99970.24
2018-09-10T00:13:16.568Z,99956.40
2018-09-10T00:15:46.050Z,99863.02
2018-09-10T00:18:15.546Z,99961.78
2018-09-10T00:20:45.084Z,99974.28
2018-09-10T00:23:14.583Z,99972.33
2018-09-10T00:25:44.055Z,99966.44
2018-09-10T00:28:13.562Z,99977.63
2018-09-10T00:30:43.052Z,99963.81
2018-09-10T00:33:12.547Z,99968.42
2018-09-10T00:35:42.007Z,99973.70
2018-09-10T00:38:11.518Z,99971.12
2018-09-10T00:40:41.044Z,99970.31
2018-09-10T00:43:10.521Z,99976.27
2018-09-10T00:45:40.036Z,99974.64
2018-09-10T00:48:09.791Z,99973.63
2018-09-10T00:50:39.283Z,99973.77
2018-09-10T00:53:08.738Z,99972.83
2018-09-10T00:55:38.229Z,99971.02
2018-09-10T00:58:07.733Z,99972.83
2018-09-10T01:00:37.232Z,99973.95
2018-09-10T01:03:06.707Z,99974.08
2018-09-10T01:05:36.223Z,99979.88
2018-09-10T01:08:05.717Z,99977.85
2018-09-10T01:10:35.207Z,99975.33
2018-09-10T01:13:04.720Z,99974.38
2018-09-10T01:15:34.183Z,99979.09
2018-09-10T01:18:03.680Z,99975.41
2018-09-10T01:20:33.171Z,99978.37
2018-09-10T01:23:02.675Z,99980.06
2018-09-10T01:25:32.194Z,99982.61
2018-09-10T01:28:01.753Z,99978.47
2018-09-10T01:30:31.250Z,99980.37
2018-09-10T01:33:00.972Z,99972.36
2018-09-10T01:35:33.518Z,99978.48
2018-09-10T01:38:02.984Z,99987.34
2018-09-10T01:40:32.491Z,99972.72
2018-09-10T01:43:01.974Z,99980.80
2018-09-10T01:45:31.510Z,99980.43
2018-09-10T01:48:01.030Z,99967.41
2018-09-10T01:50:30.545Z,99974.04
2018-09-10T01:53:00.047Z,99971.84
2018-09-10T01:55:29.504Z,99968.48
2018-09-10T01:57:59.003Z,99962.24
2018-09-10T02:00:28.478Z,99964.95
2018-09-10T02:02:57.992Z,99966.84
2018-09-10T02:05:27.456Z,99961.88
2018-09-10T02:07:56.995Z,99964.19
2018-09-10T02:10:26.508Z,99968.12
2018-09-10T02:12:56.030Z,99965.17
2018-09-10T02:15:25.628Z,99970.18
2018-09-10T02:17:55.134Z,99964.55
2018-09-10T02:20:24.720Z,99969.05
2018-09-10T02:22:54.186Z,99970.83
2018-09-10T02:25:23.716Z,99969.00
2018-09-10T02:27:53.313Z,99964.51
2018-09-10T02:30:22.816Z,99966.78
2018-09-10T02:32:52.312Z,99972.19
2018-09-10T02:35:21.840Z,99974.56
2018-09-10T02:37:51.478Z,99972.70
2018-09-10T02:40:21.045Z,99977.25
2018-09-10T02:42:50.674Z,99977.84
2018-09-10T02:45:20.195Z,99970.43
2018-09-10T02:47:49.736Z,99979.34
2018-09-10T02:50:19.368Z,99981.81
2018-09-10T02:52:48.905Z,99965.09
2018-09-10T02:55:18.609Z,99984.63
2018-09-10T02:57:48.040Z,99988.49
2018-09-10T03:00:17.665Z,99984.99
2018-09-10T03:02:47.289Z,99988.14
2018-09-10T03:05:16.824Z,99991.55
2018-09-10T03:07:46.346Z,99991.87
2018-09-10T03:10:15.851Z,99991.35
2018-09-10T03:12:45.414Z,100000.59
2018-09-10T03:15:14.983Z,99992.20
2018-09-10T03:17:44.514Z,99998.30
2018-09-10T03:20:14.088Z,100000.89
2018-09-10T03:22:43.602Z,100001.58
2018-09-10T03:25:13.124Z,100007.14
2018-09-10T03:27:42.759Z,100014.31
2018-09-10T03:30:12.296Z,100009.16
2018-09-10T03:32:42.021Z,100016.89
2018-09-10T03:35:11.560Z,100009.82
2018-09-10T03:37:41.151Z,100017.42
2018-09-10T03:40:10.723Z,100023.55
2018-09-10T03:42:40.404Z,100021.14
2018-09-10T03:45:09.959Z,100020.57
2018-09-10T03:47:39.665Z,100028.03
2018-09-10T03:50:09.178Z,100023.19
2018-09-10T03:52:38.729Z,100025.09
2018-09-10T03:55:08.351Z,100029.31
2018-09-10T03:57:38.023Z,100034.03
2018-09-10T04:00:07.663Z,100041.44
2018-09-10T04:02:37.259Z,100045.66
2018-09-10T04:05:07.212Z,100054.11
2018-09-10T04:07:36.798Z,100051.75
2018-09-10T04:10:06.475Z,100051.36
2018-09-10T04:12:35.967Z,100060.16
2018-09-10T04:15:05.754Z,100058.39
2018-09-10T04:17:35.263Z,100064.95
2018-09-10T04:20:09.326Z,100073.64
2018-09-10T04:22:39.964Z,100071.34
2018-09-10T04:25:09.491Z,100075.83
2018-09-10T04:27:39.340Z,100076.67
2018-09-10T04:30:13.028Z,100068.88
2018-09-10T04:32:42.589Z,100062.59
2018-09-10T04:35:12.411Z,100068.49
2018-09-10T04:37:42.069Z,100072.00
2018-09-10T04:40:11.644Z,100072.58
2018-09-10T04:42:41.239Z,100075.70
2018-09-10T04:45:10.750Z,100068.70
2018-09-10T04:47:40.287Z,100073.88
2018-09-10T04:50:09.840Z,100062.19
2018-09-10T04:52:39.456Z,100074.63
2018-09-10T04:55:09.023Z,100084.37
2018-09-10T04:57:38.665Z,100077.28
2018-09-10T05:00:08.278Z,100077.21
2018-09-10T05:02:38.432Z,100083.00
2018-09-10T05:05:08.006Z,100075.77
2018-09-10T05:07:37.540Z,100077.44
2018-09-10T05:10:07.223Z,100077.23
2018-09-10T05:12:36.774Z,100082.84
2018-09-10T05:15:06.489Z,100090.56
2018-09-10T05:17:36.084Z,100090.78
2018-09-10T05:20:05.706Z,100091.20
2018-09-10T05:22:35.288Z,100088.53
2018-09-10T05:25:04.867Z,100092.27
2018-09-10T05:27:34.748Z,100096.77
2018-09-10T05:30:04.455Z,100095.92
2018-09-10T05:32:33.999Z,100093.39
2018-09-10T05:35:03.511Z,100091.55
2018-09-10T05:37:33.089Z,100100.11
2018-09-10T05:40:02.651Z,100098.55
2018-09-10T05:42:32.240Z,100094.25
2018-09-10T05:45:01.849Z,100096.22
2018-09-10T05:47:31.622Z,100101.98
2018-09-10T05:50:01.131Z,100104.53
2018-09-10T05:52:30.688Z,100103.38
2018-09-10T05:55:00.239Z,100103.70
2018-09-10T05:57:29.820Z,100100.28
2018-09-10T05:59:59.383Z,99985.66
2018-09-10T06:02:28.954Z,100092.46
2018-09-10T06:04:58.607Z,100096.94
2018-09-10T06:07:28.183Z,100099.57
2018-09-10T06:09:57.781Z,100095.56
2018-09-10T06:12:27.355Z,100098.61
2018-09-10T06:14:57.157Z,100099.38
2018-09-10T06:17:26.739Z,100104.75
2018-09-10T06:19:56.312Z,100108.62
2018-09-10T06:22:25.883Z,100088.19
2018-09-10T06:24:55.421Z,100112.75
2018-09-10T06:27:24.998Z,100114.72
2018-09-10T06:29:54.546Z,100110.78
2018-09-10T06:32:24.188Z,100102.08
2018-09-10T06:34:53.859Z,100106.05
2018-09-10T06:37:23.835Z,100110.90
2018-09-10T06:39:53.403Z,100112.87
2018-09-10T06:42:23.092Z,100116.84
2018-09-10T06:44:52.643Z,100112.14
2018-09-10T06:47:22.291Z,100118.23
2018-09-10T06:49:51.908Z,100114.80
2018-09-10T06:52:22.267Z,100115.44
2018-09-10T06:54:51.808Z,100117.72
2018-09-10T06:57:21.431Z,100122.99
2018-09-10T06:59:51.043Z,100121.41
2018-09-10T07:02:20.677Z,100124.33
2018-09-10T07:04:50.263Z,100128.57
2018-09-10T07:07:19.799Z,100117.25
2018-09-10T07:09:49.362Z,100118.80
2018-09-10T07:12:18.927Z,100120.16
2018-09-10T07:14:48.467Z,100122.45
2018-09-10T07:17:18.052Z,100115.52
2018-09-10T07:19:47.579Z,100120.58
2018-09-10T07:22:17.205Z,100123.52
2018-09-10T07:24:46.775Z,100046.79
2018-09-10T07:27:16.335Z,100125.63
2018-09-10T07:29:45.937Z,100122.11
2018-09-10T07:32:15.676Z,100121.80
2018-09-10T07:34:45.204Z,100122.42
2018-09-10T07:37:14.771Z,100122.03
2018-09-10T07:39:44.426Z,100121.20
2018-09-10T07:42:13.957Z,100127.55
2018-09-10T07:44:43.529Z,100131.63
2018-09-10T07:47:13.159Z,100124.81
2018-09-10T07:49:42.767Z,100128.74
2018-09-10T07:52:12.342Z,100129.12
2018-09-10T07:54:41.986Z,100123.75
2018-09-10T07:57:11.462Z,100124.54
2018-09-10T07:59:41.051Z,100114.48
2018-09-10T08:02:10.692Z,100024.14
2018-09-10T08:04:40.296Z,100115.75
2018-09-10T08:07:09.884Z,100113.88
2018-09-10T08:09:39.534Z,100119.18
2018-09-10T08:12:09.065Z,100110.20
2018-09-10T08:14:38.620Z,100108.72
2018-09-10T08:17:08.272Z,100091.99
2018-09-10T08:19:37.960Z,100100.75
2018-09-10T08:22:07.588Z,100101.97
2018-09-10T08:24:37.178Z,100094.42
2018-09-10T08:27:06.724Z,100091.95
2018-09-10T08:29:36.307Z,100089.10
2018-09-10T08:32:06.006Z,100091.45
2018-09-10T08:34:35.722Z,100091.41
2018-09-10T08:37:05.496Z,100085.18
2018-09-10T08:39:35.352Z,100079.57
2018-09-10T08:42:04.938Z,100084.22
2018-09-10T08:44:34.555Z,100079.62
2018-09-10T08:47:04.175Z,100069.84
2018-09-10T08:49:33.819Z,100070.58
2018-09-10T08:52:03.450Z,100072.62
2018-09-10T08:54:33.333Z,100070.42
2018-09-10T08:57:02.727Z,100068.50
2018-09-10T08:59:32.267Z,100064.08
2018-09-10T09:02:01.908Z,100065.39
2018-09-10T09:04:31.648Z,100066.53
2018-09-10T09:07:01.220Z,100059.50
2018-09-10T09:09:30.768Z,100058.19
2018-09-10T09:12:00.344Z,100055.53
2018-09-10T09:14:29.860Z,100056.09
2018-09-10T09:16:59.434Z,100050.28
2018-09-10T09:19:29.032Z,100043.17
2018-09-10T09:21:58.577Z,100049.72
2018-09-10T09:24:28.133Z,100040.69
2018-09-10T09:26:57.708Z,100042.91
2018-09-10T09:29:27.243Z,100041.16
2018-09-10T09:31:56.807Z,100040.37
2018-09-10T09:34:30.396Z,100048.38
2018-09-10T09:37:05.002Z,100034.75
2018-09-10T09:39:39.582Z,100047.42
2018-09-10T09:42:14.313Z,100046.63
2018-09-10T09:44:48.948Z,100049.16
2018-09-10T09:47:21.382Z,100040.23
2018-09-10T09:49:51.082Z,100031.50
2018-09-10T09:52:20.624Z,100035.94
2018-09-10T09:54:50.669Z,100030.61
2018-09-10T09:57:20.457Z,100036.61
2018-09-10T09:59:50.040Z,100034.20
2018-09-10T10:02:20.693Z,100018.27
2018-09-10T10:04:50.301Z,100029.77
2018-09-10T10:07:19.864Z,100024.44
2018-09-10T10:09:49.433Z,100031.99
2018-09-10T10:12:19.044Z,100033.47
2018-09-10T10:14:48.901Z,100034.19
2018-09-10T10:17:20.615Z,100009.34
2018-09-10T10:19:51.170Z,100024.45
2018-09-10T10:22:20.746Z,100014.81
2018-09-10T10:24:50.280Z,100022.80
2018-09-10T10:27:20.112Z,100004.00
2018-09-10T10:29:49.736Z,100017.02
2018-09-10T10:32:19.275Z,100016.99
2018-09-10T10:34:48.849Z,100028.62
2018-09-10T10:37:18.432Z,100016.31
2018-09-10T10:39:48.024Z,100009.32
2018-09-10T10:42:17.587Z,100022.02
2018-09-10T10:44:47.181Z,100017.70
2018-09-10T10:47:16.793Z,100029.20
2018-09-10T10:49:46.486Z,100020.25
2018-09-10T10:52:16.117Z,100011.86
2018-09-10T10:54:45.726Z,100020.83
2018-09-10T10:57:15.317Z,100016.30
2018-09-10T10:59:44.888Z,100020.01
2018-09-10T11:02:14.416Z,100012.12
2018-09-10T11:04:43.984Z,100012.12
2018-09-10T11:07:13.531Z,100006.98
2018-09-10T11:09:43.092Z,100011.08
2018-09-10T11:12:12.747Z,100008.06
2018-09-10T11:14:42.332Z,100006.55
2018-09-10T11:17:11.929Z,100007.02
2018-09-10T11:19:41.533Z,100006.79
2018-09-10T11:22:11.595Z,99995.99
2018-09-10T11:24:41.277Z,99992.38
2018-09-10T11:27:10.843Z,99995.63
2018-09-10T11:29:40.501Z,100001.56
2018-09-10T11:32:10.087Z,99999.36
2018-09-10T11:34:39.633Z,100000.28
2018-09-10T11:37:09.255Z,99990.98
2018-09-10T11:39:38.912Z,99994.92
2018-09-10T11:42:08.470Z,99989.93
2018-09-10T11:44:37.975Z,99984.84
2018-09-10T11:47:07.705Z,99996.55
2018-09-10T11:49:37.235Z,99974.34
2018-09-10T11:52:06.974Z,99992.95
2018-09-10T11:54:36.490Z,99987.96
2018-09-10T11:57:06.149Z,99988.30
2018-09-10T11:59:36.398Z,99986.44
2018-09-10T12:02:07.182Z,99977.86
2018-09-10T12:04:36.780Z,99972.83
2018-09-10T12:07:06.639Z,99973.48
2018-09-10T12:09:36.224Z,99961.92
2018-09-10T12:12:06.517Z,99965.36
2018-09-10T12:14:36.070Z,99966.72
2018-09-10T12:17:05.645Z,99973.67
2018-09-10T12:19:35.331Z,99967.75
2018-09-10T12:22:04.942Z,99958.17
2018-09-10T12:24:35.135Z,99963.51
2018-09-10T12:27:04.709Z,99959.29
2018-09-10T12:29:34.251Z,99950.89
2018-09-10T12:32:03.861Z,99943.52
2018-09-10T12:34:33.452Z,99937.67
2018-09-10T12:37:03.036Z,99937.67
2018-09-10T12:39:32.608Z,99933.06
2018-09-10T12:42:02.119Z,99937.47
2018-09-10T12:44:31.764Z,99933.62
2018-09-10T12:47:01.540Z,99928.77
2018-09-10T12:49:31.448Z,99938.79
2018-09-10T12:52:00.963Z,99939.83
2018-09-10T12:54:30.648Z,99933.70
2018-09-10T12:57:00.186Z,99934.36
2018-09-10T12:59:29.832Z,99924.64
2018-09-10T13:01:59.410Z,99918.51
2018-09-10T13:04:28.965Z,99926.84
2018-09-10T13:06:58.596Z,99930.44
2018-09-10T13:09:28.134Z,99923.50
2018-09-10T13:11:57.832Z,99925.14
2018-09-10T13:14:27.756Z,99905.60
2018-09-10T13:16:57.280Z,99920.11
2018-09-10T13:19:26.891Z,99917.22
2018-09-10T13:21:56.451Z,99926.70
2018-09-10T13:24:25.977Z,99914.08
2018-09-10T13:26:55.871Z,99910.00
2018-09-10T13:29:25.494Z,99926.00
2018-09-10T13:31:54.993Z,99916.55
2018-09-10T13:34:24.600Z,99922.81
2018-09-10T13:36:54.140Z,99914.55
2018-09-10T13:39:24.062Z,99897.72
2018-09-10T13:41:53.647Z,99909.55
2018-09-10T13:44:23.408Z,99922.16
2018-09-10T13:46:53.038Z,99917.79
2018-09-10T13:49:23.566Z,99913.12
2018-09-10T13:51:53.463Z,99920.06
2018-09-10T13:54:23.135Z,99916.78
2018-09-10T13:56:52.713Z,99906.66
2018-09-10T13:59:22.409Z,99921.75
2018-09-10T14:01:52.034Z,99927.09
2018-09-10T14:04:21.655Z,99932.92
2018-09-10T14:06:51.332Z,99921.41
2018-09-10T14:09:20.887Z,99924.79
2018-09-10T14:11:50.644Z,99924.82
2018-09-10T14:14:20.317Z,99927.58
2018-09-10T14:16:49.868Z,99930.86
2018-09-10T14:19:19.486Z,99927.27
2018-09-10T14:21:49.829Z,99934.21
2018-09-10T14:24:19.423Z,99920.82
2018-09-10T14:26:55.651Z,99844.98
2018-09-10T14:29:25.238Z,99936.06
2018-09-10T14:31:54.953Z,99944.78
2018-09-10T14:34:24.514Z,99939.01
2018-09-10T14:36:54.160Z,99935.88
2018-09-10T14:39:23.723Z,99923.29
2018-09-10T14:41:53.300Z,99931.31
2018-09-10T14:44:22.843Z,99926.33
2018-09-10T14:46:52.462Z,99932.30
2018-09-10T14:49:22.047Z,99934.34
2018-09-10T14:51:51.632Z,99932.87
2018-09-10T14:54:21.180Z,99934.05
2018-09-10T14:56:50.839Z,99849.26
2018-09-10T14:59:20.339Z,99940.45
2018-09-10T15:01:49.886Z,99929.08
2018-09-10T15:04:19.494Z,99942.43
2018-09-10T15:06:48.987Z,99944.05
2018-09-10T15:09:18.586Z,99943.60
2018-09-10T15:11:48.161Z,99938.37
2018-09-10T15:14:17.673Z,99938.86
2018-09-10T15:16:47.296Z,99938.52
2018-09-10T15:19:16.877Z,99944.31
2018-09-10T15:21:46.412Z,99933.29
2018-09-10T15:24:16.085Z,99932.48
2018-09-10T15:26:45.603Z,99929.45
2018-09-10T15:29:15.119Z,99942.70
2018-09-10T15:31:44.619Z,99946.55
2018-09-10T15:34:14.536Z,99945.38
2018-09-10T15:36:44.168Z,99943.42
2018-09-10T15:39:13.768Z,99952.33
2018-09-10T15:41:43.259Z,99935.96
2018-09-10T15:44:12.875Z,99957.91
2018-09-10T15:46:42.437Z,99952.88
2018-09-10T15:49:12.091Z,99957.98
2018-09-10T15:51:41.599Z,99954.27
2018-09-10T15:54:11.197Z,99956.48
2018-09-10T15:56:40.848Z,99959.47
2018-09-10T15:59:10.474Z,99962.72
2018-09-10T16:01:40.124Z,99958.19
2018-09-10T16:04:09.681Z,99960.05
2018-09-10T16:06:39.218Z,99959.91
2018-09-10T16:09:09.283Z,99960.84
2018-09-10T16:11:38.872Z,99954.38
2018-09-10T16:14:08.371Z,99961.79
2018-09-10T16:16:37.855Z,99961.98
2018-09-10T16:19:07.397Z,99964.09
2018-09-10T16:21:36.992Z,99969.25
2018-09-10T16:24:06.615Z,99967.10
2018-09-10T16:26:36.172Z,99962.13
2018-09-10T16:29:05.753Z,99956.29
2018-09-10T16:31:35.299Z,99964.98
2018-09-10T16:34:04.871Z,99962.69
2018-09-10T16:36:34.397Z,99966.09
2018-09-10T16:39:04.145Z,99960.88
2018-09-10T16:41:33.667Z,99963.44
2018-09-10T16:44:03.249Z,99971.25
2018-09-10T16:46:32.983Z,99976.28
2018-09-10T16:49:02.975Z,99980.93
2018-09-10T16:51:32.495Z,99975.95
2018-09-10T16:54:02.057Z,99978.53
2018-09-10T16:56:31.667Z,99976.30
2018-09-10T16:59:01.252Z,99982.86
2018-09-10T17:01:30.759Z,99983.66
2018-09-10T17:04:00.307Z,99983.91
2018-09-10T17:06:29.814Z,99992.40
2018-09-10T17:08:59.423Z,99993.34
2018-09-10T17:11:28.976Z,99997.83
2018-09-10T17:13:58.543Z,100005.27
2018-09-10T17:16:28.039Z,100004.05
2018-09-10T17:18:57.643Z,100007.80
2018-09-10T17:21:27.245Z,100013.05
2018-09-10T17:23:56.735Z,100017.38
2018-09-10T17:26:26.265Z,100020.30
2018-09-10T17:28:55.848Z,100030.37
2018-09-10T17:31:25.390Z,100028.33
2018-09-10T17:33:55.032Z,100034.92
2018-09-10T17:36:24.597Z,100032.48
2018-09-10T17:38:54.115Z,100032.46
2018-09-10T17:41:23.658Z,100040.56
2018-09-10T17:43:53.186Z,100053.44
2018-09-10T17:46:22.779Z,100048.44
2018-09-10T17:48:52.314Z,100057.55
2018-09-10T17:51:21.851Z,100057.31
2018-09-10T17:53:51.378Z,100057.81
2018-09-10T17:56:21.015Z,100057.79
2018-09-10T17:58:50.795Z,100058.58
2018-09-10T18:01:20.384Z,100062.97
2018-09-10T18:03:49.933Z,100069.13
2018-09-10T18:06:19.439Z,100068.64
2018-09-10T18:08:48.965Z,100078.98
2018-09-10T18:11:18.482Z,99985.24
2018-09-10T18:13:47.992Z,100086.11
2018-09-10T18:16:17.523Z,100089.52
2018-09-10T18:18:47.093Z,100086.64
2018-09-10T18:21:16.631Z,100087.50
2018-09-10T18:23:46.120Z,100087.64
2018-09-10T18:26:15.660Z,100093.19
2018-09-10T18:28:45.150Z,100098.87
2018-09-10T18:31:14.687Z,100087.80
2018-09-10T18:33:44.207Z,100089.22
2018-09-10T18:36:13.751Z,100094.06
2018-09-10T18:38:43.304Z,100094.30
2018-09-10T18:41:12.959Z,100098.52
2018-09-10T18:43:42.450Z,100101.38
2018-09-10T18:46:11.988Z,100101.12
2018-09-10T18:48:41.810Z,100107.53
2018-09-10T18:51:11.470Z,100103.89
2018-09-10T18:53:40.994Z,100109.67
2018-09-10T18:56:10.648Z,100016.72
2018-09-10T18:58:40.159Z,100112.88
2018-09-10T19:01:09.997Z,100108.05
2018-09-10T19:03:39.325Z,100109.59
2018-09-10T19:06:08.859Z,100111.55
2018-09-10T19:08:38.378Z,100115.83
2018-09-10T19:11:07.982Z,100116.08
2018-09-10T19:13:37.461Z,100114.45
2018-09-10T19:16:07.080Z,100110.61
2018-09-10T19:18:38.907Z,100113.44
2018-09-10T19:21:08.900Z,100112.45
2018-09-10T19:23:39.058Z,100119.67
2018-09-10T19:26:08.627Z,100116.78
2018-09-10T19:28:38.124Z,100120.66
2018-09-10T19:31:07.670Z,100120.25
2018-09-10T19:33:37.235Z,100120.05
2018-09-10T19:36:06.790Z,100125.66
2018-09-10T19:38:36.340Z,100118.97
2018-09-10T19:41:05.904Z,100127.78
2018-09-10T19:43:35.432Z,100128.09
2018-09-10T19:46:04.975Z,100130.31
2018-09-10T19:48:34.519Z,100137.23
2018-09-10T19:51:04.155Z,100133.58
2018-09-10T19:53:33.714Z,100126.59
2018-09-10T19:56:03.240Z,100137.47
2018-09-10T19:58:32.852Z,100132.44
2018-09-10T20:01:02.395Z,100136.08
2018-09-10T20:03:31.943Z,100137.60
2018-09-10T20:06:01.445Z,100135.64
2018-09-10T20:08:30.971Z,100139.73
2018-09-10T20:11:00.513Z,100140.37
2018-09-10T20:13:30.040Z,100135.95
2018-09-10T20:15:59.564Z,100139.97
2018-09-10T20:18:29.167Z,100134.38
2018-09-10T20:20:58.705Z,100138.72
2018-09-10T20:23:28.388Z,100135.05
2018-09-10T20:25:57.895Z,100141.92
2018-09-10T20:28:27.431Z,100145.16
2018-09-10T20:30:57.060Z,100146.98
2018-09-10T20:33:26.603Z,100140.70
2018-09-10T20:35:56.100Z,100148.36
2018-09-10T20:38:25.626Z,100149.00
2018-09-10T20:40:55.200Z,100145.99
2018-09-10T20:43:24.723Z,100148.25
2018-09-10T20:45:54.304Z,100149.28
2018-09-10T20:48:23.785Z,100144.48
2018-09-10T20:50:53.256Z,100048.44
2018-09-10T20:53:22.836Z,100149.47
2018-09-10T20:55:52.374Z,100148.38
2018-09-10T20:58:21.876Z,100154.06
2018-09-10T21:00:51.451Z,100157.09
2018-09-10T21:03:21.002Z,100159.02
2018-09-10T21:05:50.568Z,100159.02
2018-09-10T21:08:20.140Z,100161.24
2018-09-10T21:10:49.675Z,100158.27
2018-09-10T21:13:19.291Z,100168.09
2018-09-10T21:15:48.839Z,100162.30
2018-09-10T21:18:18.409Z,100167.82
2018-09-10T21:20:47.888Z,100167.01
2018-09-10T21:23:17.480Z,100166.20
2018-09-10T21:25:47.034Z,100170.91
2018-09-10T21:28:16.570Z,100165.12
2018-09-10T21:30:46.159Z,100164.66
2018-09-10T21:33:15.752Z,100169.47
2018-09-10T21:35:45.246Z,100166.98
2018-09-10T21:38:14.782Z,100164.87
2018-09-10T21:40:44.363Z,100167.91
2018-09-10T21:43:13.956Z,100172.05
2018-09-10T21:45:43.495Z,100166.91
2018-09-10T21:48:13.120Z,100161.38
2018-09-10T21:50:42.728Z,100160.72
2018-09-10T21:53:12.348Z,100160.98
2018-09-10T21:55:41.924Z,100158.79
2018-09-10T21:58:11.435Z,100155.87
2018-09-10T22:00:46.517Z,100157.35
2018-09-10T22:03:16.017Z,100155.45
2018-09-10T22:05:45.541Z,100150.45
2018-09-10T22:08:15.208Z,100149.28
2018-09-10T22:10:44.725Z,100149.36
2018-09-10T22:13:14.312Z,100156.59
2018-09-10T22:15:43.995Z,100158.52
2018-09-10T22:18:14.078Z,100153.42
2018-09-10T22:20:44.102Z,100154.89
2018-09-10T22:23:13.734Z,100166.34
2018-09-10T22:25:43.264Z,100161.91
2018-09-10T22:28:12.780Z,100074.94
2018-09-10T22:30:42.349Z,100165.27
2018-09-10T22:33:11.931Z,100161.63
2018-09-10T22:35:41.509Z,100160.61
2018-09-10T22:38:11.019Z,100169.77
2018-09-10T22:40:40.560Z,100170.70
2018-09-10T22:43:10.128Z,100170.30
2018-09-10T22:45:39.812Z,100174.28
2018-09-10T22:48:09.329Z,100177.03
2018-09-10T22:50:38.894Z,100173.83
2018-09-10T22:53:08.436Z,100177.22
2018-09-10T22:55:37.928Z,100170.39
2018-09-10T22:58:07.476Z,100170.91
2018-09-10T23:00:36.974Z,100168.30
2018-09-10T23:03:06.726Z,100166.13
2018-09-10T23:05:36.232Z,100166.64
2018-09-10T23:08:05.779Z,100151.80
2018-09-10T23:10:35.346Z,100152.45
2018-09-10T23:13:04.920Z,100149.84
2018-09-10T23:15:34.559Z,100149.86
2018-09-10T23:18:04.106Z,100148.02
2018-09-10T23:20:33.612Z,100148.41
2018-09-10T23:23:03.089Z,100153.98
2018-09-10T23:25:32.676Z,100143.51
2018-09-10T23:28:02.240Z,100146.16
2018-09-10T23:30:31.808Z,100145.99
2018-09-10T23:33:01.359Z,100143.58
2018-09-10T23:35:30.855Z,100144.26
2018-09-10T23:38:00.395Z,100138.27
2018-09-10T23:40:29.879Z,100140.30
2018-09-10T23:42:59.532Z,100142.83
2018-09-10T23:45:29.042Z,100143.67
2018-09-10T23:47:58.663Z,100144.48
2018-09-10T23:50:28.207Z,100146.97
2018-09-10T23:52:57.781Z,100142.88
2018-09-10T23:55:27.315Z,100140.12
2018-09-10T23:57:56.799Z,100143.11
